Harbour Breton, Canada
Current Conditions -  °F | °C
As of 6:00 AM on Saturday 29 Nov 2014 (Local Time) from LFVP Reporting Station
Broken Clouds Broken Clouds  
Wind Chill: 21°   Ceiling: 900
Heat Index: 32°   Visibility: 6mi
Dew Point: 32°   Wind: 16mph
Humidity: 100%   Direction: 40°NE
Pressure: 29.8"   Gusts: NA
Location:  47.48°N, 55.83°W
Report Text: LFVP 290900Z 04014KT 9999 BKN009 BKN020 M00/M00 Q1009
Loading
Personal Weather Stations






























Interactive Weather Map New forecast layout! Learn more

10-Day Weather Forecast

Advertisements
Track Severe Weather on mobile